Terminal Aerodrome Forecast
Issued by NWS

Home | Current Version | Previous Version | Text Only | Print | Product List | Glossary On
Versions: 1 2 3 4 5 6 7 8 9 10 11 12 13 14 15 16 17 18 19 20 21 22 23 24 25 26 27
000
FTUS43 KDMX 231733
TAFMCW
TAF
KMCW 231733Z 2318/2418 17007KT P6SM FEW250
     FM232200 17007KT P6SM BKN200
     FM240600 13006KT 6SM -RA OVC050
     FM240900 09005KT 4SM -RA OVC015
     FM241200 08006KT 3SM -RA OVC008=

USA.gov is the U.S. government's official web portal to all federal, state and local government web resources and services.